Time;durP1;ratioP1;P1;durP2;ratioP2;P2;SDS_P1;SDS_P2;PMS_P1;PMS_P2;Temp;Humidity;BMP_temperature;BMP_pressure;BME280_temperature;BME280_humidity;BME280_pressure;Samples;Min_cycle;Max_cycle;Signal;HPM_P1;HPM_P2
2023/06/01 00:01:41;;;;;;;;;;;;;;;;;;5025202;28;19920;-59
2023/06/01 00:04:07;;;;;;;;;;;;;;;;;;5023780;28;19924;-59
2023/06/01 00:06:33;;;;;;;;;;;;;;;;;;5024271;28;20357;-60
2023/06/01 00:08:59;;;;;;;;;;;;;;;;;;5025392;28;19956;-61
2023/06/01 00:11:25;;;;;;;;;;;;;;;;;;5023085;28;19917;-60
2023/06/01 00:13:51;;;;;;;;;;;;;;;;;;5025486;28;19917;-60
2023/06/01 00:16:17;;;;;;;;;;;;;;;;;;5021982;28;19952;-60
2023/06/01 00:18:43;;;;;;;;;;;;;;;;;;5026191;28;19960;-60
2023/06/01 00:21:09;;;;;;;;;;;;;;;;;;5024348;28;20363;-60
2023/06/01 00:23:35;;;;;;;;;;;;;;;;;;5025174;28;19957;-60
2023/06/01 00:26:01;;;;;;;;;;;;;;;;;;5024568;28;20194;-60
2023/06/01 00:28:27;;;;;;;;;;;;;;;;;;5022906;28;19949;-61
2023/06/01 00:30:53;;;;;;;;;;;;;;;;;;5026515;28;19975;-60
2023/06/01 00:33:19;;;;;;;;;;;;;;;;;;5021053;28;19960;-60
2023/06/01 00:35:45;;;;;;;;;;;;;;;;;;5024386;28;20012;-60
2023/06/01 00:38:11;;;;;;;;;;;;;;;;;;5025639;28;19999;-60
2023/06/01 00:40:37;;;;;;;;;;;;;;;;;;5021463;28;19925;-59
2023/06/01 00:43:04;;;;;;;;;;;;;;;;;;5023217;28;19971;-59
2023/06/01 00:45:30;;;;;;;;;;;;;;;;;;5025829;28;20456;-59
2023/06/01 00:47:56;;;;;;;;;;;;;;;;;;5024325;28;19940;-59
2023/06/01 00:50:22;;;;;;;;;;;;;;;;;;5022263;28;19975;-59
2023/06/01 00:52:48;;;;;;;;;;;;;;;;;;5023121;28;20460;-59
2023/06/01 00:55:14;;;;;;;;;;;;;;;;;;5024475;28;20044;-60
2023/06/01 00:57:42;;;;;;;;;;;;;;;;;;5025068;28;19928;-59
2023/06/01 01:00:11;;;;;;;;;;;;;;;;;;5022227;28;19928;-58
2023/06/01 01:02:38;;;;;;;;;;;;;;;;;;5026090;28;20332;-58
2023/06/01 01:05:04;;;;;;;;;;;;;;;;;;5028365;28;19921;-59
2023/06/01 01:07:30;;;;;;;;;;;;;;;;;;5022228;28;20317;-59
2023/06/01 01:09:56;;;;;;;;;;;;;;;;;;5028483;28;19956;-59
2023/06/01 01:12:22;;;;;;;;;;;;;;;;;;5027815;28;19948;-60
2023/06/01 01:14:48;;;;;;;;;;;;;;;;;;5026322;28;20007;-59
2023/06/01 01:17:14;;;;;;;;;;;;;;;;;;5027194;28;19964;-59
2023/06/01 01:19:42;;;;;;;;;;;;;;;;;;5029017;28;19984;-59
2023/06/01 01:22:08;;;;;;;;;;;;;;;;;;5025419;28;19936;-58
2023/06/01 01:24:34;;;;;;;;;;;;;;;;;;5025446;28;19921;-58
2023/06/01 01:27:00;;;;;;;;;;;;;;;;;;5025683;28;20004;-59
2023/06/01 01:29:26;;;;;;;;;;;;;;;;;;5024603;28;20340;-59
2023/06/01 01:31:52;;;;;;;;;;;;;;;;;;5021317;28;20000;-59
2023/06/01 01:34:18;;;;;;;;;;;;;;;;;;5026560;28;19959;-59
2023/06/01 01:36:44;;;;;;;;;;;;;;;;;;5028353;28;19967;-59
2023/06/01 01:39:10;;;;;;;;;;;;;;;;;;5024866;28;20051;-60
2023/06/01 01:41:36;;;;;;;;;;;;;;;;;;5026830;28;19968;-59
2023/06/01 01:44:02;;;;;;;;;;;;;;;;;;5027907;28;19956;-59
2023/06/01 01:46:28;;;;;;;;;;;;;;;;;;5025952;28;19956;-59
2023/06/01 01:48:54;;;;;;;;;;;;;;;;;;5022453;28;19956;-59
2023/06/01 01:51:20;;;;;;;;;;;;;;;;;;5026973;28;19945;-59
2023/06/01 01:53:46;;;;;;;;;;;;;;;;;;5025970;28;19999;-59
2023/06/01 01:56:12;;;;;;;;;;;;;;;;;;5024229;28;19960;-60
2023/06/01 01:58:37;;;;;;;;;;;;;;;;;;5025645;28;20000;-60
2023/06/01 02:01:03;;;;;;;;;;;;;;;;;;5026019;28;19968;-60
2023/06/01 02:03:30;;;;;;;;;;;;;;;;;;5025393;28;19951;-60
2023/06/01 02:05:55;;;;;;;;;;;;;;;;;;5023362;28;19917;-59
2023/06/01 02:08:21;;;;;;;;;;;;;;;;;;5024578;28;19956;-60
2023/06/01 02:10:47;;;;;;;;;;;;;;;;;;5025202;28;19960;-60
2023/06/01 02:13:13;;;;;;;;;;;;;;;;;;5024975;28;19975;-60
2023/06/01 02:15:39;;;;;;;;;;;;;;;;;;5025399;28;19964;-60
2023/06/01 02:18:07;;;;;;;;;;;;;;;;;;5023918;28;19917;-60
2023/06/01 02:20:33;;;;;;;;;;;;;;;;;;5027411;28;19980;-60
2023/06/01 02:22:59;;;;;;;;;;;;;;;;;;5028046;28;20381;-60
2023/06/01 02:25:25;;;;;;;;;;;;;;;;;;5026699;28;19917;-60
2023/06/01 02:27:51;;;;;;;;;;;;;;;;;;5023235;28;20360;-60
2023/06/01 02:30:17;;;;;;;;;;;;;;;;;;5024700;28;19959;-60
2023/06/01 02:32:48;;;;;;;;;;;;;;;;;;5023893;28;19953;-59
2023/06/01 02:35:14;;;;;;;;;;;;;;;;;;5027128;28;19984;-60
2023/06/01 02:37:40;;;;;;;;;;;;;;;;;;5024646;28;19924;-60
2023/06/01 02:40:06;;;;;;;;;;;;;;;;;;5022513;28;19959;-60
2023/06/01 02:42:32;;;;;;;;;;;;;;;;;;5025656;28;19917;-60
2023/06/01 02:44:58;;;;;;;;;;;;;;;;;;5025985;28;20371;-60
2023/06/01 02:47:24;;;;;;;;;;;;;;;;;;5025457;28;19992;-60
2023/06/01 02:49:50;;;;;;;;;;;;;;;;;;5027620;28;20360;-60
2023/06/01 02:52:16;;;;;;;;;;;;;;;;;;5025506;28;20034;-60
2023/06/01 02:54:42;;;;;;;;;;;;;;;;;;5022571;28;19972;-60
2023/06/01 02:57:08;;;;;;;;;;;;;;;;;;5025392;28;19952;-60
2023/06/01 02:59:34;;;;;;;;;;;;;;;;;;5022683;28;19953;-60
2023/06/01 03:02:00;;;;;;;;;;;;;;;;;;5023509;28;19921;-60
2023/06/01 03:04:28;;;;;;;;;;;;;;;;;;5026570;28;19956;-60
2023/06/01 03:06:56;;;;;;;;;;;;;;;;;;5027529;28;19920;-60
2023/06/01 03:09:22;;;;;;;;;;;;;;;;;;5025736;28;20396;-61
2023/06/01 03:11:48;;;;;;;;;;;;;;;;;;5024064;28;19935;-61
2023/06/01 03:14:14;;;;;;;;;;;;;;;;;;5024889;28;20285;-60
2023/06/01 03:16:40;;;;;;;;;;;;;;;;;;5023277;28;19975;-60
2023/06/01 03:19:06;;;;;;;;;;;;;;;;;;5027080;28;20234;-60
2023/06/01 03:21:32;;;;;;;;;;;;;;;;;;5024768;28;20372;-60
2023/06/01 03:23:58;;;;;;;;;;;;;;;;;;5025505;28;19917;-60
2023/06/01 03:26:24;;;;;;;;;;;;;;;;;;5022681;28;20348;-61
2023/06/01 03:28:50;;;;;;;;;;;;;;;;;;5021486;28;19944;-60
2023/06/01 03:31:16;;;;;;;;;;;;;;;;;;5023793;28;20356;-60
2023/06/01 03:33:42;;;;;;;;;;;;;;;;;;5025725;28;20343;-60
2023/06/01 03:36:08;;;;;;;;;;;;;;;;;;5025907;28;19952;-61
2023/06/01 03:38:34;;;;;;;;;;;;;;;;;;5034686;28;19944;-61
2023/06/01 03:41:01;;;;;;;;;;;;;;;;;;5064398;28;20241;-60
2023/06/01 03:43:27;;;;;;;;;;;;;;;;;;5059011;28;19924;-61
2023/06/01 03:45:53;;;;;;;;;;;;;;;;;;5065626;28;19920;-60
2023/06/01 03:48:19;;;;;;;;;;;;;;;;;;5070319;28;20027;-60
2023/06/01 03:50:45;;;;;;;;;;;;;;;;;;5052632;28;20043;-60
2023/06/01 03:53:11;;;;;;;;;;;;;;;;;;5060583;28;20015;-60
2023/06/01 03:55:37;;;;;;;;;;;;;;;;;;5065574;28;20586;-60
2023/06/01 03:58:04;;;;;;;;;;;;;;;;;;5060813;28;19912;-60
2023/06/01 04:00:30;;;;;;;;;;;;;;;;;;5067227;28;20614;-59
2023/06/01 04:02:56;;;;;;;;;;;;;;;;;;5063600;28;19976;-60
2023/06/01 04:05:23;;;;;;;;;;;;;;;;;;5047228;28;19955;-60
2023/06/01 04:07:49;;;;;;;;;;;;;;;;;;5065032;28;19919;-59
2023/06/01 04:10:16;;;;;;;;;;;;;;;;;;5067336;28;19916;-61
2023/06/01 04:12:42;;;;;;;;;;;;;;;;;;5051006;28;20018;-60
2023/06/01 04:15:08;;;;;;;;;;;;;;;;;;5059057;28;20011;-60
2023/06/01 04:17:34;;;;;;;;;;;;;;;;;;5066853;28;20375;-60
2023/06/01 04:20:00;;;;;;;;;;;;;;;;;;5066790;28;20355;-58
2023/06/01 04:22:26;;;;;;;;;;;;;;;;;;5067394;28;19959;-58
2023/06/01 04:24:52;;;;;;;;;;;;;;;;;;5068715;28;19975;-61
2023/06/01 04:27:18;;;;;;;;;;;;;;;;;;5067906;28;20042;-61
2023/06/01 04:29:44;;;;;;;;;;;;;;;;;;5064661;28;19912;-61
2023/06/01 04:32:10;;;;;;;;;;;;;;;;;;5063960;28;19958;-61
2023/06/01 04:34:37;;;;;;;;;;;;;;;;;;5064834;28;19973;-63
2023/06/01 04:37:04;;;;;;;;;;;;;;;;;;5064774;28;19924;-60
2023/06/01 04:39:30;;;;;;;;;;;;;;;;;;5062738;28;19964;-61
2023/06/01 04:41:57;;;;;;;;;;;;;;;;;;5064821;28;20402;-61
2023/06/01 04:44:23;;;;;;;;;;;;;;;;;;5067158;28;19938;-60
2023/06/01 04:46:51;;;;;;;;;;;;;;;;;;5065634;28;19987;-61
2023/06/01 04:49:18;;;;;;;;;;;;;;;;;;5060739;28;19916;-61
2023/06/01 04:51:44;;;;;;;;;;;;;;;;;;5067937;28;20425;-61
2023/06/01 04:54:10;;;;;;;;;;;;;;;;;;5070881;28;20066;-59
2023/06/01 04:56:36;;;;;;;;;;;;;;;;;;5061585;28;20027;-59
2023/06/01 04:59:05;;;;;;;;;;;;;;;;;;5063226;28;20078;-60
2023/06/01 05:01:30;;;;;;;;;;;;;;;;;;5060488;28;20317;-60
2023/06/01 05:03:57;;;;;;;;;;;;;;;;;;5068392;28;19956;-60
2023/06/01 05:06:24;;;;;;;;;;;;;;;;;;5071018;28;20386;-59
2023/06/01 05:08:50;;;;;;;;;;;;;;;;;;5066387;28;19912;-59
2023/06/01 05:11:16;;;;;;;;;;;;;;;;;;5064103;28;19952;-60
2023/06/01 05:13:44;;;;;;;;;;;;;;;;;;5063560;28;19920;-59
2023/06/01 05:16:10;;;;;;;;;;;;;;;;;;5066527;28;19920;-60
2023/06/01 05:18:36;;;;;;;;;;;;;;;;;;5064575;28;19929;-60
2023/06/01 05:21:02;;;;;;;;;;;;;;;;;;5066472;28;19924;-61
2023/06/01 05:23:28;;;;;;;;;;;;;;;;;;5064241;28;19921;-60
2023/06/01 05:26:01;;;;;;;;;;;;;;;;;;5066281;28;19952;-61
2023/06/01 05:28:27;;;;;;;;;;;;;;;;;;5062102;28;19962;-61
2023/06/01 05:30:54;;;;;;;;;;;;;;;;;;5067169;28;20527;-59
2023/06/01 05:33:20;;;;;;;;;;;;;;;;;;5068410;28;19916;-61
2023/06/01 05:35:46;;;;;;;;;;;;;;;;;;5059948;28;20533;-60
2023/06/01 05:38:12;;;;;;;;;;;;;;;;;;5067949;28;19951;-61
2023/06/01 05:40:38;;;;;;;;;;;;;;;;;;5050162;28;19930;-60
2023/06/01 05:43:04;;;;;;;;;;;;;;;;;;5055642;28;19955;-60
2023/06/01 05:45:30;;;;;;;;;;;;;;;;;;5045125;28;19944;-60
2023/06/01 05:47:56;;;;;;;;;;;;;;;;;;5044404;28;19913;-60
2023/06/01 05:50:22;;;;;;;;;;;;;;;;;;5041868;28;19960;-60
2023/06/01 05:52:48;;;;;;;;;;;;;;;;;;5044034;28;19998;-60
2023/06/01 05:55:14;;;;;;;;;;;;;;;;;;5046388;28;19994;-61
2023/06/01 05:57:40;;;;;;;;;;;;;;;;;;5036928;28;20253;-60
2023/06/01 06:00:09;;;;;;;;;;;;;;;;;;5040210;28;20027;-60
2023/06/01 06:02:35;;;;;;;;;;;;;;;;;;5045654;28;19944;-61
2023/06/01 06:05:03;;;;;;;;;;;;;;;;;;5051538;28;20332;-61
2023/06/01 06:07:29;;;;;;;;;;;;;;;;;;5044297;28;20008;-60
2023/06/01 06:09:55;;;;;;;;;;;;;;;;;;5029068;28;19987;-61
2023/06/01 06:12:21;;;;;;;;;;;;;;;;;;5043493;28;20007;-60
2023/06/01 06:14:48;;;;;;;;;;;;;;;;;;5042884;28;20002;-61
2023/06/01 06:17:14;;;;;;;;;;;;;;;;;;5035434;28;20084;-62
2023/06/01 06:19:43;;;;;;;;;;;;;;;;;;5045751;28;19947;-62
2023/06/01 06:22:09;;;;;;;;;;;;;;;;;;5046945;28;19921;-62
2023/06/01 06:24:35;;;;;;;;;;;;;;;;;;5046106;28;20369;-61
2023/06/01 06:27:02;;;;;;;;;;;;;;;;;;5048290;28;20035;-62
2023/06/01 06:29:27;;;;;;;;;;;;;;;;;;5044677;28;19920;-62
2023/06/01 06:31:54;;;;;;;;;;;;;;;;;;5035437;28;19959;-62
2023/06/01 06:34:20;;;;;;;;;;;;;;;;;;5038102;28;19963;-62
2023/06/01 06:36:46;;;;;;;;;;;;;;;;;;5041886;28;19960;-62
2023/06/01 06:39:12;;;;;;;;;;;;;;;;;;5038149;28;19925;-62
2023/06/01 06:41:39;;;;;;;;;;;;;;;;;;5036471;28;20338;-61
2023/06/01 06:44:05;;;;;;;;;;;;;;;;;;5034058;28;19932;-61
2023/06/01 06:46:30;;;;;;;;;;;;;;;;;;5036001;28;19948;-62
2023/06/01 06:48:56;;;;;;;;;;;;;;;;;;5039992;28;19956;-61
2023/06/01 06:51:22;;;;;;;;;;;;;;;;;;5040948;28;19971;-62
2023/06/01 06:53:48;;;;;;;;;;;;;;;;;;5042504;28;19952;-62
2023/06/01 06:56:15;;;;;;;;;;;;;;;;;;5034642;28;19923;-62
2023/06/01 06:58:41;;;;;;;;;;;;;;;;;;5037083;28;20364;-62
2023/06/01 07:01:08;;;;;;;;;;;;;;;;;;5035803;28;20225;-63
2023/06/01 07:03:35;;;;;;;;;;;;;;;;;;5047254;28;20011;-62
2023/06/01 07:06:01;;;;;;;;;;;;;;;;;;5046917;28;20043;-62
2023/06/01 07:08:27;;;;;;;;;;;;;;;;;;5047761;28;19988;-60
2023/06/01 07:10:53;;;;;;;;;;;;;;;;;;5037308;28;20011;-61
2023/06/01 07:13:19;;;;;;;;;;;;;;;;;;5043694;28;19923;-62
2023/06/01 07:15:45;;;;;;;;;;;;;;;;;;5059134;28;19917;-61
2023/06/01 07:18:11;;;;;;;;;;;;;;;;;;5041479;28;19992;-60
2023/06/01 07:20:37;;;;;;;;;;;;;;;;;;5032012;28;20016;-62
2023/06/01 07:23:03;;;;;;;;;;;;;;;;;;5037607;28;19959;-61
2023/06/01 07:25:29;;;;;;;;;;;;;;;;;;5037307;28;20278;-61
2023/06/01 07:27:56;;;;;;;;;;;;;;;;;;5051064;28;19923;-61
2023/06/01 07:30:22;;;;;;;;;;;;;;;;;;5041446;28;19917;-61
2023/06/01 07:32:48;;;;;;;;;;;;;;;;;;5036700;28;20274;-62
2023/06/01 07:35:14;;;;;;;;;;;;;;;;;;5042872;28;20015;-62
2023/06/01 07:37:40;;;;;;;;;;;;;;;;;;5039777;28;20146;-62
2023/06/01 07:40:06;;;;;;;;;;;;;;;;;;5058023;28;20395;-62
2023/06/01 07:42:32;;;;;;;;;;;;;;;;;;5062040;28;19920;-61
2023/06/01 07:44:58;;;;;;;;;;;;;;;;;;5057669;28;19963;-62
2023/06/01 07:47:25;;;;;;;;;;;;;;;;;;5061236;28;19952;-62
2023/06/01 07:49:51;;;;;;;;;;;;;;;;;;5064311;28;19916;-62
2023/06/01 07:52:17;;;;;;;;;;;;;;;;;;5058477;28;20368;-63
2023/06/01 07:54:43;;;;;;;;;;;;;;;;;;5066141;28;19916;-61
2023/06/01 07:57:09;;;;;;;;;;;;;;;;;;5055669;28;19916;-62
2023/06/01 07:59:35;;;;;;;;;;;;;;;;;;5062464;28;20021;-61
2023/06/01 08:02:02;;;;;;;;;;;;;;;;;;5054010;28;19923;-61
2023/06/01 08:04:33;;;;;;;;;;;;;;;;;;5054009;28;20034;-60
2023/06/01 08:06:59;;;;;;;;;;;;;;;;;;5038426;28;19929;-62
2023/06/01 08:09:25;;;;;;;;;;;;;;;;;;5037014;28;19945;-61
2023/06/01 08:11:53;;;;;;;;;;;;;;;;;;5053347;28;19956;-61
2023/06/01 08:14:19;;;;;;;;;;;;;;;;;;5068862;28;19916;-62
2023/06/01 08:16:45;;;;;;;;;;;;;;;;;;5066317;28;19999;-62
2023/06/01 08:19:11;;;;;;;;;;;;;;;;;;5063745;28;19917;-62
2023/06/01 08:21:37;;;;;;;;;;;;;;;;;;5069251;28;19944;-62
2023/06/01 08:24:03;;;;;;;;;;;;;;;;;;5054058;28;20083;-62
2023/06/01 08:26:29;;;;;;;;;;;;;;;;;;5067003;28;20306;-62
2023/06/01 08:28:56;;;;;;;;;;;;;;;;;;5064693;28;20281;-63
2023/06/01 08:31:22;;;;;;;;;;;;;;;;;;5065151;28;19952;-62
2023/06/01 08:33:48;;;;;;;;;;;;;;;;;;5072076;28;19932;-62
2023/06/01 08:36:13;;;;;;;;;;;;;;;;;;5064510;28;19943;-62
2023/06/01 08:38:39;;;;;;;;;;;;;;;;;;5066391;28;20387;-63
2023/06/01 08:41:05;;;;;;;;;;;;;;;;;;5061793;28;20363;-62
2023/06/01 08:43:31;;;;;;;;;;;;;;;;;;5062704;28;19916;-62
2023/06/01 08:45:57;;;;;;;;;;;;;;;;;;5070810;28;20003;-62
2023/06/01 08:48:23;;;;;;;;;;;;;;;;;;5067811;28;19958;-62
2023/06/01 08:50:50;;;;;;;;;;;;;;;;;;5059303;28;20058;-61
2023/06/01 08:53:17;;;;;;;;;;;;;;;;;;5059792;28;19920;-61
2023/06/01 08:55:43;;;;;;;;;;;;;;;;;;5064347;28;20320;-62
2023/06/01 08:58:09;;;;;;;;;;;;;;;;;;5064397;28;19954;-61
2023/06/01 09:00:35;;;;;;;;;;;;;;;;;;5060363;28;20364;-61
2023/06/01 09:03:01;;;;;;;;;;;;;;;;;;5066165;28;20252;-61
2023/06/01 09:05:27;;;;;;;;;;;;;;;;;;5060346;28;19996;-61
2023/06/01 09:07:54;;;;;;;;;;;;;;;;;;5057935;28;19999;-61
2023/06/01 09:10:20;;;;;;;;;;;;;;;;;;5061312;28;19913;-62
2023/06/01 09:12:47;;;;;;;;;;;;;;;;;;5057933;28;20288;-61
2023/06/01 09:15:16;;;;;;;;;;;;;;;;;;5059667;28;20012;-62
2023/06/01 09:17:42;;;;;;;;;;;;;;;;;;5067410;28;19920;-62
2023/06/01 09:20:08;;;;;;;;;;;;;;;;;;5073470;28;19959;-61
2023/06/01 09:22:33;;;;;;;;;;;;;;;;;;5054734;28;19917;-61
2023/06/01 09:24:59;;;;;;;;;;;;;;;;;;5060215;28;19913;-61
2023/06/01 09:27:25;;;;;;;;;;;;;;;;;;5053890;28;19971;-61
2023/06/01 09:29:51;;;;;;;;;;;;;;;;;;5057971;28;19974;-62
2023/06/01 09:32:17;;;;;;;;;;;;;;;;;;5058070;28;19978;-61
2023/06/01 09:34:43;;;;;;;;;;;;;;;;;;5053424;28;19980;-63
2023/06/01 09:37:10;;;;;;;;;;;;;;;;;;5064097;28;20308;-61
2023/06/01 09:39:36;;;;;;;;;;;;;;;;;;5062763;28;20041;-61
2023/06/01 09:42:02;;;;;;;;;;;;;;;;;;5047775;28;20071;-61
2023/06/01 09:44:28;;;;;;;;;;;;;;;;;;5062497;28;20265;-61
2023/06/01 09:46:54;;;;;;;;;;;;;;;;;;5062016;28;19917;-62
2023/06/01 09:49:24;;;;;;;;;;;;;;;;;;5065674;28;19912;-61
2023/06/01 09:51:50;;;;;;;;;;;;;;;;;;5059738;28;20325;-62
2023/06/01 09:54:16;;;;;;;;;;;;;;;;;;5057442;28;19923;-62
2023/06/01 09:56:42;;;;;;;;;;;;;;;;;;5060472;28;19932;-62
2023/06/01 09:59:08;;;;;;;;;;;;;;;;;;5062717;28;19963;-61
2023/06/01 10:01:34;;;;;;;;;;;;;;;;;;5060775;28;20149;-62
2023/06/01 10:04:00;;;;;;;;;;;;;;;;;;5068963;28;19944;-61
2023/06/01 10:06:28;;;;;;;;;;;;;;;;;;5059339;28;19948;-61
2023/06/01 10:08:54;;;;;;;;;;;;;;;;;;5058476;28;19966;-61
2023/06/01 10:11:23;;;;;;;;;;;;;;;;;;5058862;28;20345;-62
2023/06/01 10:13:50;;;;;;;;;;;;;;;;;;5064546;28;19920;-62
2023/06/01 10:16:16;;;;;;;;;;;;;;;;;;5047115;28;19927;-63
2023/06/01 10:18:42;;;;;;;;;;;;;;;;;;5056895;28;20320;-61
2023/06/01 10:21:08;;;;;;;;;;;;;;;;;;5060678;28;20346;-61
2023/06/01 10:23:34;;;;;;;;;;;;;;;;;;5064491;28;20001;-61
2023/06/01 10:26:00;;;;;;;;;;;;;;;;;;5062019;28;19913;-60
2023/06/01 10:28:29;;;;;;;;;;;;;;;;;;5058469;28;19924;-59
2023/06/01 10:30:55;;;;;;;;;;;;;;;;;;5059102;28;20264;-60
2023/06/01 10:33:20;;;;;;;;;;;;;;;;;;5056988;28;19964;-60
2023/06/01 10:35:47;;;;;;;;;;;;;;;;;;5061395;28;20433;-62
2023/06/01 10:38:12;;;;;;;;;;;;;;;;;;5061761;28;19943;-61
2023/06/01 10:40:39;;;;;;;;;;;;;;;;;;5055688;28;19968;-60
2023/06/01 10:43:05;;;;;;;;;;;;;;;;;;5062144;28;19912;-60
2023/06/01 10:45:31;;;;;;;;;;;;;;;;;;5057881;28;20261;-60
2023/06/01 10:47:57;;;;;;;;;;;;;;;;;;5064412;28;19923;-60
2023/06/01 10:50:23;;;;;;;;;;;;;;;;;;5062458;28;19966;-60
2023/06/01 10:52:50;;;;;;;;;;;;;;;;;;5056212;28;19923;-60
2023/06/01 10:55:16;;;;;;;;;;;;;;;;;;5061491;28;20284;-60
2023/06/01 10:57:45;;;;;;;;;;;;;;;;;;5053674;28;19960;-60
2023/06/01 11:00:12;;;;;;;;;;;;;;;;;;5064853;28;20276;-60
2023/06/01 11:02:39;;;;;;;;;;;;;;;;;;5063250;28;19921;-60
2023/06/01 11:05:05;;;;;;;;;;;;;;;;;;5053631;28;19924;-60
2023/06/01 11:07:31;;;;;;;;;;;;;;;;;;5059695;28;19952;-60
2023/06/01 11:09:57;;;;;;;;;;;;;;;;;;5055698;28;19952;-60
2023/06/01 11:12:23;;;;;;;;;;;;;;;;;;5056875;28;19952;-61
2023/06/01 11:14:49;;;;;;;;;;;;;;;;;;5059997;28;20059;-60
2023/06/01 11:17:16;;;;;;;;;;;;;;;;;;5053960;28;19913;-62
2023/06/01 11:19:42;;;;;;;;;;;;;;;;;;5067014;28;20402;-60
2023/06/01 11:22:08;;;;;;;;;;;;;;;;;;5067647;28;20077;-60
2023/06/01 11:24:34;;;;;;;;;;;;;;;;;;5057659;28;19916;-60
2023/06/01 11:27:04;;;;;;;;;;;;;;;;;;5062247;28;19913;-60
2023/06/01 11:29:31;;;;;;;;;;;;;;;;;;5061121;28;20387;-60
2023/06/01 11:31:57;;;;;;;;;;;;;;;;;;5060510;28;19939;-61
2023/06/01 11:34:23;;;;;;;;;;;;;;;;;;5059568;28;19952;-61
2023/06/01 11:36:50;;;;;;;;;;;;;;;;;;5065561;28;19942;-60
2023/06/01 11:39:16;;;;;;;;;;;;;;;;;;5058801;28;19929;-61
2023/06/01 11:41:44;;;;;;;;;;;;;;;;;;5057218;28;20342;-61
2023/06/01 11:44:10;;;;;;;;;;;;;;;;;;5065039;28;19924;-62
2023/06/01 11:46:36;;;;;;;;;;;;;;;;;;5060396;28;20021;-61
2023/06/01 11:49:04;;;;;;;;;;;;;;;;;;5053067;28;20017;-61
2023/06/01 11:51:30;;;;;;;;;;;;;;;;;;5051737;28;19916;-61
2023/06/01 11:53:56;;;;;;;;;;;;;;;;;;5056831;28;20317;-61
2023/06/01 11:56:23;;;;;;;;;;;;;;;;;;5063380;28;19927;-61
2023/06/01 11:58:50;;;;;;;;;;;;;;;;;;5057811;28;20063;-61
2023/06/01 12:01:19;;;;;;;;;;;;;;;;;;5062203;28;19916;-61
2023/06/01 12:03:45;;;;;;;;;;;;;;;;;;5045919;28;19923;-61
2023/06/01 12:06:12;;;;;;;;;;;;;;;;;;5055237;28;19917;-61
2023/06/01 12:08:38;;;;;;;;;;;;;;;;;;5051242;28;19913;-62
2023/06/01 12:11:04;;;;;;;;;;;;;;;;;;5043553;28;19970;-61
2023/06/01 12:13:30;;;;;;;;;;;;;;;;;;5053665;28;19956;-61
2023/06/01 12:15:56;;;;;;;;;;;;;;;;;;5058746;28;19939;-61
2023/06/01 12:18:22;;;;;;;;;;;;;;;;;;5050349;28;20436;-61
2023/06/01 12:20:48;;;;;;;;;;;;;;;;;;5062576;28;19924;-61
2023/06/01 12:23:15;;;;;;;;;;;;;;;;;;5068703;28;19955;-61
2023/06/01 12:25:41;;;;;;;;;;;;;;;;;;5061961;28;20363;-61
2023/06/01 12:28:07;;;;;;;;;;;;;;;;;;5067632;28;19936;-61
2023/06/01 12:30:33;;;;;;;;;;;;;;;;;;5065516;28;20283;-61
2023/06/01 12:32:59;;;;;;;;;;;;;;;;;;5060485;28;19956;-61
2023/06/01 12:35:25;;;;;;;;;;;;;;;;;;5060993;28;19920;-61
2023/06/01 12:37:51;;;;;;;;;;;;;;;;;;5066738;28;20002;-61
2023/06/01 12:40:17;;;;;;;;;;;;;;;;;;5063482;28;20415;-61
2023/06/01 12:42:43;;;;;;;;;;;;;;;;;;5049765;28;19951;-62
2023/06/01 12:45:09;;;;;;;;;;;;;;;;;;5061177;28;19997;-61
2023/06/01 12:47:35;;;;;;;;;;;;;;;;;;5066863;28;19944;-61
2023/06/01 12:50:01;;;;;;;;;;;;;;;;;;5063111;28;20166;-60
2023/06/01 12:52:27;;;;;;;;;;;;;;;;;;5067542;28;19963;-60
2023/06/01 12:54:53;;;;;;;;;;;;;;;;;;5066093;28;19967;-61
2023/06/01 12:57:19;;;;;;;;;;;;;;;;;;5068074;28;20344;-61
2023/06/01 12:59:45;;;;;;;;;;;;;;;;;;5068215;28;19943;-61
2023/06/01 13:02:13;;;;;;;;;;;;;;;;;;5068388;28;20010;-61
2023/06/01 13:04:39;;;;;;;;;;;;;;;;;;5068633;28;19912;-61
2023/06/01 13:07:05;;;;;;;;;;;;;;;;;;5069687;28;19963;-62
2023/06/01 13:09:32;;;;;;;;;;;;;;;;;;5069375;28;19955;-62
2023/06/01 13:11:58;;;;;;;;;;;;;;;;;;5069336;28;20338;-61
2023/06/01 13:14:24;;;;;;;;;;;;;;;;;;5076433;28;19951;-61
2023/06/01 13:16:50;;;;;;;;;;;;;;;;;;5068207;28;19944;-61
2023/06/01 13:19:16;;;;;;;;;;;;;;;;;;5071688;28;20314;-61
2023/06/01 13:21:42;;;;;;;;;;;;;;;;;;5070791;28;19960;-62
2023/06/01 13:24:10;;;;;;;;;;;;;;;;;;5070128;28;20365;-60
2023/06/01 13:26:37;;;;;;;;;;;;;;;;;;5068270;28;19924;-61
2023/06/01 13:29:06;;;;;;;;;;;;;;;;;;5068718;28;19920;-61
2023/06/01 13:31:32;;;;;;;;;;;;;;;;;;5069909;28;19923;-61
2023/06/01 13:33:58;;;;;;;;;;;;;;;;;;5071124;28;20116;-61
2023/06/01 13:36:24;;;;;;;;;;;;;;;;;;5070991;28;20011;-61
2023/06/01 13:38:50;;;;;;;;;;;;;;;;;;5071298;28;19920;-61
2023/06/01 13:41:16;;;;;;;;;;;;;;;;;;5068749;28;19970;-64
2023/06/01 13:43:42;;;;;;;;;;;;;;;;;;5068394;28;19956;-62
2023/06/01 13:46:09;;;;;;;;;;;;;;;;;;5060227;28;19921;-62
2023/06/01 13:48:35;;;;;;;;;;;;;;;;;;5066513;28;19916;-62
2023/06/01 13:51:01;;;;;;;;;;;;;;;;;;5067184;28;19959;-62
2023/06/01 13:53:27;;;;;;;;;;;;;;;;;;5070147;28;19952;-62
2023/06/01 13:55:54;;;;;;;;;;;;;;;;;;5067449;28;20381;-62
2023/06/01 13:58:20;;;;;;;;;;;;;;;;;;5067208;28;19919;-62
2023/06/01 14:00:46;;;;;;;;;;;;;;;;;;5063791;28;20287;-62
2023/06/01 14:03:12;;;;;;;;;;;;;;;;;;5065461;28;19965;-63
2023/06/01 14:05:38;;;;;;;;;;;;;;;;;;5063486;28;20067;-62
2023/06/01 14:08:05;;;;;;;;;;;;;;;;;;5069100;28;19912;-63
2023/06/01 14:10:33;;;;;;;;;;;;;;;;;;5068763;28;19917;-61
2023/06/01 14:13:00;;;;;;;;;;;;;;;;;;5066302;28;19975;-61
2023/06/01 14:15:26;;;;;;;;;;;;;;;;;;5064694;28;19917;-61
2023/06/01 14:17:52;;;;;;;;;;;;;;;;;;5069353;28;19917;-62
2023/06/01 14:20:18;;;;;;;;;;;;;;;;;;5066045;28;19964;-62
2023/06/01 14:22:44;;;;;;;;;;;;;;;;;;5062863;28;19960;-62
2023/06/01 14:25:10;;;;;;;;;;;;;;;;;;5063400;28;20458;-62
2023/06/01 14:27:37;;;;;;;;;;;;;;;;;;5065889;28;19955;-62
2023/06/01 14:30:03;;;;;;;;;;;;;;;;;;5062420;28;20352;-62
2023/06/01 14:32:29;;;;;;;;;;;;;;;;;;5060018;28;20828;-62
2023/06/01 14:34:55;;;;;;;;;;;;;;;;;;5060586;28;19971;-62
2023/06/01 14:37:21;;;;;;;;;;;;;;;;;;5063971;28;20356;-61
2023/06/01 14:39:49;;;;;;;;;;;;;;;;;;5068404;28;20400;-61
2023/06/01 14:42:15;;;;;;;;;;;;;;;;;;5069284;28;20283;-62
2023/06/01 14:44:41;;;;;;;;;;;;;;;;;;5066905;28;19927;-62
2023/06/01 14:47:07;;;;;;;;;;;;;;;;;;5060873;28;19965;-62
2023/06/01 14:49:33;;;;;;;;;;;;;;;;;;5062507;28;19953;-62
2023/06/01 14:51:59;;;;;;;;;;;;;;;;;;5045068;28;19966;-62
2023/06/01 14:54:25;;;;;;;;;;;;;;;;;;5067062;28;20429;-62
2023/06/01 14:56:51;;;;;;;;;;;;;;;;;;5063561;28;19916;-61
2023/06/01 14:59:17;;;;;;;;;;;;;;;;;;5063669;28;19975;-62
2023/06/01 15:01:43;;;;;;;;;;;;;;;;;;5065509;28;19924;-61
2023/06/01 15:04:09;;;;;;;;;;;;;;;;;;5067720;28;19912;-61
2023/06/01 15:06:37;;;;;;;;;;;;;;;;;;5066229;28;19913;-61
2023/06/01 15:09:03;;;;;;;;;;;;;;;;;;5065490;28;19932;-61
2023/06/01 15:11:29;;;;;;;;;;;;;;;;;;5064334;28;19944;-61
2023/06/01 15:13:55;;;;;;;;;;;;;;;;;;5065554;28;19947;-61
2023/06/01 15:16:21;;;;;;;;;;;;;;;;;;5062280;28;19916;-61
2023/06/01 15:18:47;;;;;;;;;;;;;;;;;;5058526;28;19923;-60
2023/06/01 15:21:13;;;;;;;;;;;;;;;;;;5062307;28;19963;-60
2023/06/01 15:23:39;;;;;;;;;;;;;;;;;;5062754;28;20055;-61
2023/06/01 15:26:05;;;;;;;;;;;;;;;;;;5059942;28;20015;-59
2023/06/01 15:28:31;;;;;;;;;;;;;;;;;;5062521;28;20407;-60
2023/06/01 15:30:57;;;;;;;;;;;;;;;;;;5055041;28;19979;-60
2023/06/01 15:33:23;;;;;;;;;;;;;;;;;;5059226;28;19958;-60
2023/06/01 15:35:49;;;;;;;;;;;;;;;;;;5060829;28;19962;-60
2023/06/01 15:38:15;;;;;;;;;;;;;;;;;;5061978;28;19951;-60
2023/06/01 15:40:41;;;;;;;;;;;;;;;;;;5063287;28;19947;-61
2023/06/01 15:43:09;;;;;;;;;;;;;;;;;;5065550;28;20459;-63
2023/06/01 15:45:35;;;;;;;;;;;;;;;;;;5059546;28;20257;-61
2023/06/01 15:50:58;;;;;;;;;;;;;;;;;;5064807;28;19951;-61
2023/06/01 15:53:24;;;;;;;;;;;;;;;;;;5069184;28;19934;-61
2023/06/01 15:55:50;;;;;;;;;;;;;;;;;;5048967;28;19916;-61
2023/06/01 15:58:17;;;;;;;;;;;;;;;;;;5046539;28;20309;-61
2023/06/01 16:00:43;;;;;;;;;;;;;;;;;;5063893;28;20011;-61
2023/06/01 16:03:09;;;;;;;;;;;;;;;;;;5066455;28;20023;-62
2023/06/01 16:05:34;;;;;;;;;;;;;;;;;;5064567;28;20003;-61
2023/06/01 16:08:00;;;;;;;;;;;;;;;;;;5065039;28;20481;-61
2023/06/01 16:10:29;;;;;;;;;;;;;;;;;;5065406;28;19943;-61
2023/06/01 16:12:55;;;;;;;;;;;;;;;;;;5060150;28;19922;-61
2023/06/01 16:15:21;;;;;;;;;;;;;;;;;;5064415;28;19916;-61
2023/06/01 16:17:47;;;;;;;;;;;;;;;;;;5060649;28;20535;-62
2023/06/01 16:20:13;;;;;;;;;;;;;;;;;;5058032;28;19921;-62
2023/06/01 16:22:39;;;;;;;;;;;;;;;;;;5064917;28;20026;-62
2023/06/01 16:25:05;;;;;;;;;;;;;;;;;;5064538;28;20302;-62
2023/06/01 16:27:31;;;;;;;;;;;;;;;;;;5066007;28;20027;-62
2023/06/01 16:29:57;;;;;;;;;;;;;;;;;;5058676;28;20217;-62
2023/06/01 16:32:25;;;;;;;;;;;;;;;;;;5059657;28;19967;-61
2023/06/01 16:34:54;;;;;;;;;;;;;;;;;;5060792;28;19921;-61
2023/06/01 16:37:20;;;;;;;;;;;;;;;;;;5065823;28;19913;-62
2023/06/01 16:39:46;;;;;;;;;;;;;;;;;;5064058;28;19967;-62
2023/06/01 16:42:12;;;;;;;;;;;;;;;;;;5062950;28;19962;-62